Time;durP1;ratioP1;P1;durP2;ratioP2;P2;SDS_P1;SDS_P2;PMS_P1;PMS_P2;Temp;Humidity;BMP_temperature;BMP_pressure;BME280_temperature;BME280_humidity;BME280_pressure;Samples;Min_cycle;Max_cycle;Signal;HPM_P1;HPM_P2
2022/11/28 00:00:54;;;;;;;;;8.25;6.00;;;;;10.64;82.95;100575.94;5034057;28;48169;-82
2022/11/28 00:03:21;;;;;;;;;7.33;7.33;;;;;10.59;82.77;100561.75;5052634;28;45151;-82
2022/11/28 00:05:47;;;;;;;;;9.00;8.00;;;;;10.65;82.96;100559.31;5052246;28;45807;-82
2022/11/28 00:08:12;;;;;;;;;9.00;8.00;;;;;10.65;82.75;100555.78;5052354;28;45056;-82
2022/11/28 00:10:39;;;;;;;;;10.00;9.00;;;;;10.69;82.48;100555.00;5052551;28;44926;-82
2022/11/28 00:13:04;;;;;;;;;9.75;8.75;;;;;10.83;82.73;100564.22;5052460;28;44970;-83
2022/11/28 00:15:29;;;;;;;;;9.33;9.00;;;;;10.84;82.47;100560.78;5052043;28;52239;-82
2022/11/28 00:17:55;;;;;;;;;3.75;3.50;;;;;10.56;82.60;100517.84;5062052;28;45093;-83
2022/11/28 00:20:20;;;;;;;;;9.25;8.25;;;;;10.82;82.48;100559.81;5071821;28;56523;-82
2022/11/28 00:22:45;;;;;;;;;11.00;9.75;;;;;10.80;82.51;100546.63;5072887;28;45014;-83
2022/11/28 00:25:10;;;;;;;;;9.00;8.00;;;;;10.70;82.45;100528.81;5071942;28;53072;-82
2022/11/28 00:27:36;;;;;;;;;10.33;9.00;;;;;10.71;82.15;100538.47;5071787;28;56252;-82
2022/11/28 00:30:01;;;;;;;;;9.67;9.33;;;;;10.71;82.66;100532.31;5065364;28;59387;-82
2022/11/28 00:32:26;;;;;;;;;11.00;8.25;;;;;10.71;82.63;100525.31;5050980;28;45049;-83
2022/11/28 00:34:52;;;;;;;;;8.67;8.00;;;;;10.46;82.19;100489.53;5051130;28;59695;-83
2022/11/28 00:37:17;;;;;;;;;7.75;7.75;;;;;10.84;82.53;100545.00;5068719;28;45091;-82
2022/11/28 00:39:42;;;;;;;;;9.00;9.00;;;;;10.72;82.43;100540.25;5050772;28;44931;-82
2022/11/28 00:42:07;;;;;;;;;8.00;8.00;;;;;10.65;82.40;100537.41;5051195;28;60108;-82
2022/11/28 00:44:33;;;;;;;;;9.33;8.67;;;;;10.78;82.54;100537.78;5050190;28;53986;-83
2022/11/28 00:46:58;;;;;;;;;6.25;6.00;;;;;10.56;82.82;100499.47;5051995;28;45230;-82
2022/11/28 00:49:23;;;;;;;;;6.75;6.75;;;;;10.69;82.76;100523.47;5051741;28;45082;-82
2022/11/28 00:51:49;;;;;;;;;8.00;6.67;;;;;10.67;83.00;100520.81;5051180;28;52127;-82
2022/11/28 00:54:14;;;;;;;;;6.33;5.67;;;;;10.73;83.03;100536.75;5051031;28;56095;-83
2022/11/28 00:56:39;;;;;;;;;9.67;8.33;;;;;10.58;82.85;100515.28;5050951;28;60087;-82
2022/11/28 00:59:06;;;;;;;;;9.25;6.50;;;;;10.53;82.95;100506.34;5051590;28;44981;-83
2022/11/28 01:01:34;;;;;;;;;8.25;8.25;;;;;10.76;83.11;100543.88;5051742;28;45233;-83
2022/11/28 01:04:05;;;;;;;;;11.00;8.50;;;;;10.73;83.26;100536.75;5049886;28;45949;-82
2022/11/28 01:06:49;;;;;;;;;10.50;9.50;;;;;10.55;83.30;100499.44;5050887;28;45329;-82
2022/11/28 01:09:18;;;;;;;;;8.75;8.00;;;;;10.87;83.23;100552.97;5051064;28;45103;-83
2022/11/28 01:11:45;;;;;;;;;9.75;8.00;;;;;10.90;83.04;100550.44;5050693;28;45276;-82
2022/11/28 01:14:12;;;;;;;;;6.75;6.25;;;;;10.83;83.48;100540.56;5055042;28;45242;-82
2022/11/28 01:16:38;;;;;;;;;8.00;6.75;;;;;10.60;83.47;100479.44;5039452;28;45472;-82
2022/11/28 01:19:04;;;;;;;;;8.25;6.00;;;;;11.02;83.29;100550.78;5061039;28;45098;-82
2022/11/28 01:21:30;;;;;;;;;8.75;8.00;;;;;10.94;83.24;100531.28;5070427;28;44954;-82
2022/11/28 01:23:55;;;;;;;;;10.50;9.50;;;;;11.06;83.02;100549.16;5069625;28;46322;-82
2022/11/28 01:26:24;;;;;;;;;9.00;9.00;;;;;10.92;83.01;100522.44;5052599;28;45129;-82
2022/11/28 01:28:50;;;;;;;;;10.25;9.00;;;;;10.98;83.07;100524.34;5049354;28;45331;-82
2022/11/28 01:31:18;;;;;;;;;8.75;7.50;;;;;11.14;83.18;100550.28;5050878;28;45040;-82
2022/11/28 01:33:44;;;;;;;;;8.50;7.50;;;;;11.15;82.85;100556.41;5050642;28;45456;-83
2022/11/28 01:36:10;;;;;;;;;8.75;8.50;;;;;11.15;82.90;100557.31;5057902;28;54703;-82
2022/11/28 01:38:36;;;;;;;;;10.25;9.00;;;;;11.13;83.29;100552.84;5070953;28;45016;-82
2022/11/28 01:41:02;;;;;;;;;9.50;8.00;;;;;11.11;82.82;100552.81;5057197;28;44986;-83
2022/11/28 01:43:27;;;;;;;;;10.25;9.50;;;;;11.15;83.36;100553.78;5050886;28;45657;-82
2022/11/28 01:45:53;;;;;;;;;7.67;7.67;;;;;11.06;82.83;100543.88;5050007;28;50246;-82
2022/11/28 01:48:25;;;;;;;;;10.50;9.00;;;;;11.16;82.98;100573.97;5051268;28;45229;-82
2022/11/28 01:50:54;;;;;;;;;11.50;10.00;;;;;10.93;83.14;100536.47;5050808;28;45081;-82
2022/11/28 01:53:20;;;;;;;;;9.75;8.25;;;;;11.14;82.95;100573.06;5065327;28;46062;-82
2022/11/28 01:55:54;;;;;;;;;9.75;9.25;;;;;10.90;82.92;100539.03;5070981;28;45061;-82
2022/11/28 01:58:20;;;;;;;;;8.25;7.75;;;;;11.02;83.24;100560.41;5069507;28;45073;-82
2022/11/28 02:00:46;;;;;;;;;11.75;9.75;;;;;11.11;83.04;100581.72;5052150;28;45127;-82
2022/11/28 02:03:38;;;;;;;;;9.50;9.50;;;;;10.99;83.17;100550.72;5070949;28;45094;-82
2022/11/28 02:06:03;;;;;;;;;12.25;9.00;;;;;10.87;83.58;100539.81;5071038;28;45716;-82
2022/11/28 02:08:33;;;;;;;;;10.75;10.50;;;;;11.08;83.21;100572.03;5070947;28;45156;-82
2022/11/28 02:11:21;;;;;;;;;10.00;10.00;;;;;11.10;83.48;100575.59;5071280;28;45042;-82
2022/11/28 02:13:59;;;;;;;;;11.25;9.00;;;;;11.09;83.63;100570.28;5070650;28;45293;-82
2022/11/28 02:16:52;;;;;;;;;9.00;8.25;;;;;11.11;83.65;100563.31;5055204;28;45619;-82
2022/11/28 02:20:02;;;;;;;;;9.75;9.00;;;;;11.11;83.60;100572.09;5074259;28;44989;-82
2022/11/28 02:22:30;;;;;;;;;9.00;9.00;;;;;11.15;83.88;100570.47;5074629;28;44940;-83
2022/11/28 02:25:07;;;;;;;;;10.75;9.50;;;;;10.92;83.55;100518.91;5074114;28;45562;-82
2022/11/28 02:28:00;;;;;;;;;12.25;11.50;;;;;11.21;83.91;100564.47;5074014;28;45526;-83
2022/11/28 02:30:30;;;;;;;;;10.75;10.00;;;;;11.23;83.90;100560.13;5054040;28;45172;-83
2022/11/28 02:33:37;;;;;;;;;11.50;11.25;;;;;11.27;83.77;100569.91;5035532;28;45147;-82
2022/11/28 02:36:12;;;;;;;;;9.00;9.00;;;;;11.24;83.74;100560.22;5053030;28;45542;-86
2022/11/28 02:39:01;;;;;;;;;10.75;9.00;;;;;11.20;84.05;100557.44;5035022;28;45408;-83
2022/11/28 02:41:45;;;;;;;;;9.00;9.00;;;;;11.19;84.11;100559.19;5040793;28;44950;-82
2022/11/28 02:44:16;;;;;;;;;10.00;9.00;;;;;11.13;84.12;100539.69;5053735;28;45196;-83
2022/11/28 02:47:00;;;;;;;;;10.50;10.00;;;;;11.24;84.02;100554.06;5034471;28;46467;-82
2022/11/28 02:49:31;;;;;;;;;12.50;10.25;;;;;11.16;84.05;100522.25;5031426;28;45006;-83
2022/11/28 02:52:03;;;;;;;;;10.75;10.25;;;;;11.27;84.04;100533.06;5044774;28;45007;-82
2022/11/28 02:54:30;;;;;;;;;11.75;10.00;;;;;11.03;83.73;100492.09;5034774;28;45168;-83
2022/11/28 02:56:56;;;;;;;;;12.00;11.00;;;;;11.16;83.99;100511.75;5052401;28;45627;-82
2022/11/28 02:59:29;;;;;;;;;11.00;8.75;;;;;11.25;84.04;100522.53;5053019;28;45096;-82
2022/11/28 03:01:55;;;;;;;;;11.00;10.00;;;;;11.24;84.24;100510.22;5052933;28;45128;-83
2022/11/28 03:04:26;;;;;;;;;12.00;10.75;;;;;11.25;83.79;100521.63;5052875;28;45159;-83
2022/11/28 03:07:08;;;;;;;;;10.00;10.00;;;;;11.25;83.84;100522.53;5052983;28;45090;-83
2022/11/28 03:10:00;;;;;;;;;8.00;8.00;;;;;11.26;83.94;100528.66;5052877;28;45083;-82
2022/11/28 03:12:55;;;;;;;;;10.50;9.25;;;;;11.20;83.83;100516.25;5053315;28;45158;-82
2022/11/28 03:15:30;;;;;;;;;10.75;10.50;;;;;11.18;83.75;100506.50;5052414;28;44941;-82
2022/11/28 03:18:06;;;;;;;;;10.00;9.00;;;;;11.30;83.89;100520.03;5052642;28;45394;-83
2022/11/28 03:20:55;;;;;;;;;9.75;9.75;;;;;11.31;83.78;100522.69;5051985;28;45168;-82
2022/11/28 03:23:28;;;;;;;;;10.00;10.00;;;;;11.01;83.70;100470.13;5052288;28;45010;-83
2022/11/28 03:26:20;;;;;;;;;10.25;9.00;;;;;11.32;83.92;100515.69;5051823;28;45157;-82
2022/11/28 03:29:05;;;;;;;;;9.25;8.00;;;;;11.19;83.70;100506.56;5048831;28;45162;-83
2022/11/28 03:31:38;;;;;;;;;4.00;4.00;;;;;11.32;83.96;100528.84;5052043;28;45925;-82
2022/11/28 03:34:07;;;;;;;;;11.25;10.75;;;;;11.09;83.65;100494.91;5050391;28;45127;-83
2022/11/28 03:36:45;;;;;;;;;9.50;9.25;;;;;11.34;84.07;100537.69;5051587;28;45224;-82
2022/11/28 03:39:15;;;;;;;;;9.00;8.75;;;;;11.08;83.73;100494.84;5052273;28;45918;-83
2022/11/28 03:41:48;;;;;;;;;8.00;7.50;;;;;11.36;83.66;100538.59;5053794;28;45240;-82
2022/11/28 03:44:20;;;;;;;;;9.00;9.00;;;;;11.34;83.45;100529.78;5072609;28;45037;-82
2022/11/28 03:46:48;;;;;;;;;9.75;9.75;;;;;11.32;83.53;100524.47;5061920;28;44868;-83
2022/11/28 03:49:22;;;;;;;;;9.25;9.25;;;;;11.24;83.71;100498.81;5052727;28;45140;-83
2022/11/28 03:51:59;;;;;;;;;8.75;8.50;;;;;11.33;83.85;100507.84;5034546;28;45474;-82
2022/11/28 03:54:35;;;;;;;;;7.50;6.50;;;;;11.30;83.63;100510.38;5052611;28;45152;-82
2022/11/28 03:57:34;;;;;;;;;9.00;9.00;;;;;11.28;83.85;100504.22;5052955;28;45100;-83
2022/11/28 04:00:04;;;;;;;;;9.25;9.00;;;;;11.13;83.94;100479.19;5071683;28;45413;-82
2022/11/28 04:02:38;;;;;;;;;9.50;9.50;;;;;11.21;84.13;100489.09;5072561;28;45506;-82
2022/11/28 04:05:04;;;;;;;;;10.00;9.00;;;;;11.33;84.13;100506.97;5073065;28;45071;-82
2022/11/28 04:07:52;;;;;;;;;10.00;8.33;;;;;11.36;83.90;100514.94;5072547;28;45425;-83
2022/11/28 04:10:53;;;;;;;;;9.50;9.50;;;;;11.26;83.75;100502.38;5072661;28;46305;-82
2022/11/28 04:13:34;;;;;;;;;6.75;6.50;;;;;11.28;84.16;100509.47;5058082;28;45081;-82
2022/11/28 04:16:08;;;;;;;;;10.00;9.00;;;;;11.40;83.91;100523.81;5072039;28;45268;-83
2022/11/28 04:18:58;;;;;;;;;7.50;6.50;;;;;11.39;83.80;100512.38;5072320;28;44996;-82
2022/11/28 04:21:42;;;;;;;;;10.00;9.25;;;;;11.43;84.07;100516.88;5072250;28;45783;-82
2022/11/28 04:24:13;;;;;;;;;8.00;8.00;;;;;11.46;84.28;100518.69;5054353;28;45455;-83
2022/11/28 04:26:48;;;;;;;;;8.50;8.25;;;;;11.44;83.58;100521.31;5070554;28;45031;-82
2022/11/28 04:29:18;;;;;;;;;8.25;8.25;;;;;11.43;83.88;100521.22;5072677;28;45013;-83
2022/11/28 04:31:47;;;;;;;;;9.00;9.00;;;;;11.41;83.64;100529.09;5071701;28;45052;-82
2022/11/28 04:34:17;;;;;;;;;10.00;10.00;;;;;11.42;83.57;100529.97;5071612;28;45102;-82
2022/11/28 04:36:44;;;;;;;;;9.75;8.75;;;;;11.28;84.02;100516.44;5033832;28;45125;-82
2022/11/28 04:39:20;;;;;;;;;10.50;9.50;;;;;11.35;84.13;100534.19;5032848;28;45211;-83
2022/11/28 04:41:56;;;;;;;;;9.25;8.00;;;;;11.10;84.03;100495.78;5033654;28;47600;-82
2022/11/28 04:44:32;;;;;;;;;8.25;8.00;;;;;11.27;84.19;100530.44;5051700;28;45158;-83
2022/11/28 04:46:58;;;;;;;;;9.75;9.50;;;;;11.20;84.35;100520.63;5051627;28;44986;-83
2022/11/28 04:49:25;;;;;;;;;9.75;9.50;;;;;11.35;84.07;100545.63;5049927;28;45030;-82
2022/11/28 04:51:53;;;;;;;;;8.50;8.00;;;;;11.34;84.07;100542.94;5050729;28;45985;-82
2022/11/28 04:54:30;;;;;;;;;12.00;10.25;;;;;11.32;83.97;100535.00;5051161;28;45071;-82
2022/11/28 04:57:02;;;;;;;;;9.75;9.00;;;;;11.24;84.18;100514.59;5051160;28;45290;-82
2022/11/28 04:59:30;;;;;;;;;11.50;10.00;;;;;11.08;84.49;100468.53;5051174;28;45075;-82
2022/11/28 05:02:00;;;;;;;;;9.50;8.25;;;;;11.08;84.09;100460.66;5066214;28;46956;-82
2022/11/28 05:04:25;;;;;;;;;10.50;10.00;;;;;11.19;84.54;100485.53;5069302;28;45387;-82
2022/11/28 05:07:01;;;;;;;;;10.75;10.25;;;;;11.15;84.27;100493.28;5050040;28;45116;-83
2022/11/28 05:09:26;;;;;;;;;10.00;9.25;;;;;11.28;84.12;100517.34;5051493;28;45150;-82
2022/11/28 05:11:51;;;;;;;;;10.50;9.00;;;;;11.23;84.33;100520.69;5051646;28;45636;-82
2022/11/28 05:14:17;;;;;;;;;10.00;10.00;;;;;11.28;84.51;100516.44;5050846;28;51332;-82
2022/11/28 05:16:43;;;;;;;;;10.25;9.00;;;;;11.24;84.47;100522.50;5054460;28;44906;-83
2022/11/28 05:19:08;;;;;;;;;9.25;7.75;;;;;11.16;84.27;100503.84;5069823;28;45305;-82
2022/11/28 05:21:33;;;;;;;;;9.75;9.75;;;;;11.23;84.09;100513.72;5071720;28;45424;-83
2022/11/28 05:23:59;;;;;;;;;9.33;9.00;;;;;11.24;84.05;100509.34;5071350;28;56263;-82
2022/11/28 05:26:25;;;;;;;;;12.75;11.00;;;;;11.19;84.37;100501.31;5071500;28;45030;-83
2022/11/28 05:28:50;;;;;;;;;9.50;8.50;;;;;11.03;84.40;100463.19;5071320;28;45208;-83
2022/11/28 05:31:19;;;;;;;;;9.25;8.75;;;;;10.86;84.73;100443.38;5071059;28;45314;-82
2022/11/28 05:33:44;;;;;;;;;11.00;10.00;;;;;11.11;84.97;100473.91;5071348;28;45459;-82
2022/11/28 05:36:11;;;;;;;;;11.25;9.50;;;;;11.30;84.42;100506.88;5071356;28;44957;-82
2022/11/28 05:38:37;;;;;;;;;10.00;8.50;;;;;11.33;84.66;100506.97;5057256;28;44934;-82
2022/11/28 05:41:03;;;;;;;;;10.00;8.50;;;;;11.22;84.87;100489.97;5030618;28;45196;-82
2022/11/28 05:43:29;;;;;;;;;9.75;9.75;;;;;11.38;84.65;100521.13;5030383;28;45087;-83
2022/11/28 05:45:55;;;;;;;;;10.00;9.00;;;;;11.12;84.62;100470.41;5030300;28;45035;-83
2022/11/28 05:48:21;;;;;;;;;10.50;9.75;;;;;11.23;84.62;100487.41;5030411;28;45198;-83
2022/11/28 05:50:49;;;;;;;;;10.75;10.75;;;;;11.34;84.36;100501.75;5030336;28;45089;-83
2022/11/28 05:53:16;;;;;;;;;10.00;9.00;;;;;11.45;84.30;100511.66;5037987;28;45278;-82
2022/11/28 05:55:41;;;;;;;;;12.25;12.00;;;;;11.40;84.57;100503.63;5071036;28;44918;-82
2022/11/28 05:58:06;;;;;;;;;12.00;11.00;;;;;11.47;84.31;100515.22;5069327;28;45506;-84
2022/11/28 06:00:32;;;;;;;;;9.50;9.00;;;;;11.49;84.17;100516.16;5049551;28;45258;-83
2022/11/28 06:02:57;;;;;;;;;9.00;9.00;;;;;11.43;84.32;100510.72;5051677;28;45092;-83
2022/11/28 06:05:24;;;;;;;;;9.75;9.00;;;;;11.35;84.30;100490.34;5063959;28;45081;-83
2022/11/28 06:07:49;;;;;;;;;11.00;10.25;;;;;11.28;84.48;100479.59;5051585;28;45218;-82
2022/11/28 06:10:14;;;;;;;;;11.33;10.33;;;;;11.48;84.13;100524.91;5064938;28;49085;-83
2022/11/28 06:12:40;;;;;;;;;9.75;9.75;;;;;11.39;84.24;100519.41;5069823;28;60348;-82
2022/11/28 06:15:06;;;;;;;;;11.00;10.00;;;;;11.33;84.55;100510.47;5050092;28;46688;-83
2022/11/28 06:17:31;;;;;;;;;10.25;8.25;;;;;10.81;84.68;100430.13;5050147;28;45053;-83
2022/11/28 06:19:59;;;;;;;;;10.50;10.00;;;;;11.38;84.53;100526.41;5050533;28;45731;-82
2022/11/28 06:22:25;;;;;;;;;11.50;10.50;;;;;11.49;84.47;100556.53;5049832;28;56958;-83
2022/11/28 06:24:50;;;;;;;;;10.00;9.00;;;;;11.45;84.47;100553.78;5050512;28;57643;-82
2022/11/28 06:27:15;;;;;;;;;10.00;9.33;;;;;11.29;84.56;100508.63;5070289;28;44924;-83
2022/11/28 06:29:41;;;;;;;;;12.00;11.00;;;;;11.53;84.04;100547.00;5069737;28;61038;-83
2022/11/28 06:32:06;;;;;;;;;7.75;7.50;;;;;10.96;84.20;100460.31;5053045;28;44976;-82
2022/11/28 06:34:32;;;;;;;;;12.00;11.00;;;;;11.44;84.37;100539.72;5032584;28;44887;-83
2022/11/28 06:36:57;;;;;;;;;9.50;8.50;;;;;11.30;83.87;100530.53;5049050;28;45015;-82
2022/11/28 06:39:23;;;;;;;;;10.00;8.00;;;;;11.34;84.02;100542.94;5049965;28;45579;-83
2022/11/28 06:41:48;;;;;;;;;10.50;9.00;;;;;11.39;84.21;100550.97;5049105;28;52295;-83
2022/11/28 06:44:15;;;;;;;;;10.00;8.75;;;;;11.26;84.34;100532.19;5068071;28;44940;-82
2022/11/28 06:46:41;;;;;;;;;11.25;9.75;;;;;11.39;84.33;100566.75;5062006;28;45029;-82
2022/11/28 06:49:06;;;;;;;;;10.50;9.25;;;;;11.20;84.31;100528.50;5069780;28;45657;-83
2022/11/28 06:51:32;;;;;;;;;10.67;9.00;;;;;11.32;83.94;100561.31;5057523;28;45099;-82
2022/11/28 06:53:57;;;;;;;;;10.50;9.75;;;;;11.23;84.35;100545.28;5029934;28;44998;-83
2022/11/28 06:56:22;;;;;;;;;11.00;10.00;;;;;11.07;84.27;100522.00;5027618;28;60955;-81
2022/11/28 06:58:56;;;;;;;;;8.75;8.75;;;;;11.24;84.22;100557.56;5038175;28;45616;-82
2022/11/28 07:01:23;;;;;;;;;10.00;9.00;;;;;11.29;84.28;100566.50;5039279;28;45584;-83
2022/11/28 07:03:49;;;;;;;;;12.25;10.50;;;;;10.96;84.16;100510.28;5033515;28;45041;-82
2022/11/28 07:06:17;;;;;;;;;10.00;10.00;;;;;11.20;84.24;100565.34;5032048;28;45040;-82
2022/11/28 07:08:43;;;;;;;;;11.50;10.00;;;;;11.06;84.80;100551.78;5033001;28;45070;-83
2022/11/28 07:11:11;;;;;;;;;11.75;10.00;;;;;11.18;84.36;100573.19;5028102;28;45331;-82
2022/11/28 07:13:36;;;;;;;;;9.50;9.25;;;;;10.99;84.26;100541.94;5038066;28;45503;-82
2022/11/28 07:16:02;;;;;;;;;13.75;9.75;;;;;11.08;84.51;100555.31;5034949;28;45596;-82
2022/11/28 07:18:28;;;;;;;;;8.00;6.50;;;;;11.09;84.63;100567.66;5048219;28;45366;-82
2022/11/28 07:20:53;;;;;;;;;11.75;10.75;;;;;11.08;84.45;100572.03;5037747;28;45446;-82
2022/11/28 07:23:18;;;;;;;;;11.25;9.25;;;;;10.93;84.71;100549.63;5038006;28;45454;-82
2022/11/28 07:25:44;;;;;;;;;9.67;8.33;;;;;11.07;84.79;100571.97;5038538;28;45285;-82
2022/11/28 07:28:09;;;;;;;;;10.33;8.00;;;;;11.06;84.48;100572.81;5034795;28;57437;-82
2022/11/28 07:30:34;;;;;;;;;9.00;9.00;;;;;11.07;84.41;100585.09;5037397;28;45320;-82
2022/11/28 07:32:59;;;;;;;;;10.00;9.00;;;;;11.07;84.74;100587.75;5024680;28;45510;-82
2022/11/28 07:35:25;;;;;;;;;11.00;10.25;;;;;11.05;84.56;100577.19;5052485;28;45172;-82
2022/11/28 07:37:50;;;;;;;;;10.00;9.50;;;;;10.90;84.68;100549.53;5052211;28;44949;-82
2022/11/28 07:40:18;;;;;;;;;10.00;10.00;;;;;11.04;84.57;100587.66;5051437;28;59710;-82
2022/11/28 07:42:44;;;;;;;;;10.50;9.75;;;;;10.93;84.76;100578.53;5051893;28;45035;-85
2022/11/28 07:45:09;;;;;;;;;10.25;10.00;;;;;10.82;84.77;100567.69;5051822;28;45268;-82
2022/11/28 07:47:35;;;;;;;;;8.00;6.25;;;;;10.65;84.74;100537.41;5051966;28;45396;-82
2022/11/28 07:50:03;;;;;;;;;8.33;8.33;;;;;10.82;85.07;100579.09;5052111;28;57843;-88
2022/11/28 07:52:29;;;;;;;;;10.50;9.75;;;;;10.96;84.81;100608.47;5052890;28;45201;-89
2022/11/28 07:54:54;;;;;;;;;9.50;9.50;;;;;10.87;84.72;100583.63;5037399;28;44923;-94
2022/11/28 07:57:20;;;;;;;;;10.00;10.00;;;;;10.96;84.80;100602.31;5052257;28;45233;-80
2022/11/28 07:59:45;;;;;;;;;11.33;10.00;;;;;10.95;85.00;100590.00;5052300;28;44896;-81
2022/11/28 08:02:11;;;;;;;;;8.75;8.00;;;;;10.94;84.72;100593.50;5052131;28;45152;-81
2022/11/28 08:04:36;;;;;;;;;10.25;8.00;;;;;10.99;84.50;100603.31;5032210;28;45064;-81
2022/11/28 08:07:02;;;;;;;;;10.25;7.75;;;;;11.00;84.61;100605.09;5032733;28;45571;-81
2022/11/28 08:09:28;;;;;;;;;10.25;8.25;;;;;10.87;84.67;100584.50;5044668;28;45166;-83
2022/11/28 08:11:53;;;;;;;;;9.50;9.50;;;;;11.02;84.69;100608.63;5051682;28;45246;-82
2022/11/28 08:14:19;;;;;;;;;10.50;9.50;;;;;11.06;84.45;100604.38;5051689;28;45077;-81
2022/11/28 08:16:44;;;;;;;;;11.50;8.50;;;;;11.05;84.65;100607.84;5029687;28;47416;-82
2022/11/28 08:19:09;;;;;;;;;10.00;10.00;;;;;10.98;84.72;100588.34;5046599;28;55750;-81
2022/11/28 08:21:35;;;;;;;;;9.75;9.00;;;;;11.14;84.69;100613.41;5033727;28;45413;-81
2022/11/28 08:24:03;;;;;;;;;9.50;6.25;;;;;10.92;84.49;100576.75;5051936;28;45143;-81
2022/11/28 08:26:29;;;;;;;;;10.00;8.00;;;;;11.15;84.37;100617.81;5051571;28;45988;-82
2022/11/28 08:28:55;;;;;;;;;11.00;10.00;;;;;11.18;84.45;100619.63;5053992;28;45291;-80
2022/11/28 08:31:24;;;;;;;;;10.25;10.00;;;;;11.20;84.78;100617.94;5033438;28;45101;-81
2022/11/28 08:33:51;;;;;;;;;11.00;10.00;;;;;11.17;84.16;100618.72;5051261;28;45182;-81
2022/11/28 08:36:18;;;;;;;;;10.50;10.00;;;;;11.20;84.25;100617.94;5052049;28;45919;-84
2022/11/28 08:38:47;;;;;;;;;11.00;10.00;;;;;11.06;84.25;100593.84;5051231;28;45199;-81
2022/11/28 08:41:16;;;;;;;;;9.75;9.75;;;;;11.22;84.05;100613.59;5050095;28;45214;-82
2022/11/28 08:43:42;;;;;;;;;10.00;9.75;;;;;10.84;84.10;100551.16;5051400;28;45082;-81
2022/11/28 08:46:13;;;;;;;;;5.00;4.25;;;;;11.15;84.09;100601.13;5050874;28;45117;-82
2022/11/28 08:48:40;;;;;;;;;8.50;7.75;;;;;10.89;83.89;100560.91;5051248;28;45094;-83
2022/11/28 08:51:06;;;;;;;;;10.50;10.00;;;;;11.25;84.02;100617.22;5051009;28;45076;-83
2022/11/28 08:53:32;;;;;;;;;12.50;9.50;;;;;11.13;83.78;100603.69;5033258;28;44979;-82
2022/11/28 08:55:58;;;;;;;;;15.50;11.25;;;;;11.22;83.81;100617.13;5051435;28;45235;-83
2022/11/28 08:58:24;;;;;;;;;9.25;8.75;;;;;11.23;83.81;100613.69;5051267;28;45426;-82
2022/11/28 09:00:50;;;;;;;;;9.00;8.00;;;;;11.10;83.60;100591.38;5051155;28;44969;-82
2022/11/28 09:03:17;;;;;;;;;10.00;9.25;;;;;11.13;83.99;100593.19;5050581;28;45017;-82
2022/11/28 09:05:45;;;;;;;;;10.00;8.50;;;;;11.18;83.88;100598.56;5051042;28;45106;-82
2022/11/28 09:08:11;;;;;;;;;11.00;9.75;;;;;10.99;83.82;100565.59;5051635;28;45627;-81
2022/11/28 09:10:38;;;;;;;;;8.00;8.00;;;;;11.11;83.82;100581.72;5062013;28;44978;-82
2022/11/28 09:13:10;;;;;;;;;8.50;8.50;;;;;11.28;83.99;100617.34;5066150;28;45162;-82
2022/11/28 09:15:44;;;;;;;;;9.00;7.75;;;;;10.81;83.66;100530.00;5048750;28;45132;-82
2022/11/28 09:18:12;;;;;;;;;10.75;8.00;;;;;11.31;83.80;100609.50;5050572;28;45600;-81
2022/11/28 09:20:38;;;;;;;;;8.50;8.00;;;;;11.37;83.96;100617.56;5049665;28;45210;-81
2022/11/28 09:23:04;;;;;;;;;9.25;9.00;;;;;11.37;83.87;100608.78;5051100;28;45069;-82
2022/11/28 09:25:30;;;;;;;;;9.75;9.50;;;;;11.35;83.55;100594.72;5050988;28;45092;-81
2022/11/28 09:27:55;;;;;;;;;9.00;7.75;;;;;11.32;83.22;100584.09;5051294;28;45188;-81
2022/11/28 09:30:21;;;;;;;;;10.50;8.25;;;;;11.52;83.31;100609.22;5050454;28;45264;-84
2022/11/28 09:32:48;;;;;;;;;11.75;9.25;;;;;11.58;83.01;100627.84;5045031;28;45102;-82
2022/11/28 09:35:15;;;;;;;;;10.00;9.25;;;;;11.48;82.85;100603.88;5043398;28;45516;-82
2022/11/28 09:37:40;;;;;;;;;11.00;10.00;;;;;11.62;83.07;100635.00;5044910;28;45319;-81
2022/11/28 09:40:13;;;;;;;;;12.25;9.75;;;;;11.62;82.57;100626.19;5032239;28;45249;-84
2022/11/28 09:42:42;;;;;;;;;12.75;11.00;;;;;11.71;82.73;100634.34;5051080;28;44950;-82
2022/11/28 09:45:21;;;;;;;;;13.50;12.75;;;;;11.48;82.91;100588.97;5050285;28;45288;-81
2022/11/28 09:47:52;;;;;;;;;11.75;11.50;;;;;11.75;82.67;100632.69;5048295;28;45229;-81
2022/11/28 09:50:39;;;;;;;;;10.25;10.00;;;;;11.86;82.74;100640.06;5050155;28;45021;-81
2022/11/28 09:53:21;;;;;;;;;12.00;11.25;;;;;11.93;82.30;100641.16;5051044;28;45230;-81
2022/11/28 09:55:46;;;;;;;;;11.50;10.00;;;;;11.96;81.93;100638.56;5046792;28;45272;-82
2022/11/28 09:58:32;;;;;;;;;9.33;9.00;;;;;11.98;82.37;100629.00;5032550;28;45089;-82
2022/11/28 10:01:10;;;;;;;;;9.00;9.00;;;;;12.00;82.03;100629.91;5030333;28;45034;-82
2022/11/28 10:04:07;;;;;;;;;10.25;10.00;;;;;12.01;81.75;100630.81;5045411;28;45144;-81
2022/11/28 10:06:56;;;;;;;;;10.75;10.00;;;;;12.03;82.11;100621.22;5002857;28;45663;-82
2022/11/28 10:09:43;;;;;;;;;11.00;9.50;;;;;12.06;81.79;100629.19;5003221;28;45210;-82
2022/11/28 10:12:42;;;;;;;;;13.00;12.00;;;;;12.03;81.75;100630.00;5049436;28;45169;-82
2022/11/28 10:15:14;;;;;;;;;11.00;9.50;;;;;12.02;81.82;100633.50;5050101;28;45062;-82
2022/11/28 10:18:24;;;;;;;;;7.50;6.00;;;;;11.98;81.90;100633.38;5049012;28;45349;-82
2022/11/28 10:20:56;;;;;;;;;6.50;6.50;;;;;11.72;82.12;100599.25;5029514;28;45581;-83
2022/11/28 10:23:43;;;;;;;;;7.25;5.50;;;;;11.75;82.44;100606.38;5050297;28;45010;-81
2022/11/28 10:26:17;;;;;;;;;8.50;5.00;;;;;11.96;81.91;100642.94;5031866;28;45258;-82
2022/11/28 10:28:47;;;;;;;;;6.25;6.00;;;;;11.87;82.27;100630.41;5049959;28;46287;-83
2022/11/28 10:31:32;;;;;;;;;7.25;6.75;;;;;11.96;82.20;100640.31;5043364;28;45836;-82
2022/11/28 10:34:14;;;;;;;;;6.00;6.00;;;;;11.93;81.70;100633.25;5050228;28;45167;-82
2022/11/28 10:37:06;;;;;;;;;5.25;4.50;;;;;11.86;81.86;100632.16;5051850;28;45001;-82
2022/11/28 10:39:36;;;;;;;;;5.75;5.00;;;;;11.82;82.36;100638.22;5047304;28;45376;-82
2022/11/28 10:42:20;;;;;;;;;7.00;6.00;;;;;11.84;82.14;100633.00;5050415;28;45275;-82
2022/11/28 10:45:16;;;;;;;;;6.00;6.00;;;;;11.89;81.86;100639.28;5042108;28;45347;-82
2022/11/28 10:47:53;;;;;;;;;5.25;5.00;;;;;11.93;82.00;100624.47;5034762;28;45449;-82
2022/11/28 10:50:32;;;;;;;;;6.50;6.00;;;;;12.01;81.81;100625.53;5035514;28;46079;-82
2022/11/28 10:53:00;;;;;;;;;8.25;6.00;;;;;12.07;81.58;100620.44;5035604;28;45443;-82
2022/11/28 10:56:21;;;;;;;;;7.00;4.25;;;;;12.13;82.03;100620.59;5035680;28;45392;-82
2022/11/28 10:59:14;;;;;;;;;5.50;4.75;;;;;12.08;81.30;100603.78;4953940;28;45583;-82
2022/11/28 11:01:40;;;;;;;;;8.50;6.00;;;;;12.05;81.00;100599.31;4937105;28;46804;-83
2022/11/28 11:04:17;;;;;;;;;7.50;5.50;;;;;12.28;81.72;100614.84;5016272;28;46180;-82
2022/11/28 11:06:46;;;;;;;;;4.25;3.00;;;;;12.23;81.27;100576.94;5035491;28;45230;-82
2022/11/28 11:09:12;;;;;;;;;4.50;4.50;;;;;12.30;80.79;100590.28;5035342;28;45373;-82
2022/11/28 11:11:47;;;;;;;;;3.00;3.00;;;;;12.51;80.01;100624.22;5035517;28;45592;-82
2022/11/28 11:14:12;;;;;;;;;4.75;4.25;;;;;12.45;79.83;100616.13;5035373;28;45877;-82
2022/11/28 11:16:57;;;;;;;;;5.25;4.50;;;;;12.50;79.20;100642.63;5035140;28;45637;-82
2022/11/28 11:19:30;;;;;;;;;4.50;3.50;;;;;12.54;80.00;100641.84;5035245;28;45553;-82
2022/11/28 11:22:04;;;;;;;;;6.00;5.00;;;;;12.57;80.17;100627.00;5035352;28;46306;-82
2022/11/28 11:24:30;;;;;;;;;5.00;4.25;;;;;12.82;79.27;100620.56;5035242;28;45327;-83
2022/11/28 11:27:03;;;;;;;;;4.25;3.75;;;;;13.12;78.34;100635.31;5034913;28;45472;-83
2022/11/28 11:29:31;;;;;;;;;5.50;4.50;;;;;13.31;78.12;100641.94;5035109;28;45300;-82
2022/11/28 11:32:02;;;;;;;;;4.00;3.50;;;;;13.24;76.55;100622.41;5034820;28;45323;-81
2022/11/28 11:34:33;;;;;;;;;5.00;4.75;;;;;13.38;77.23;100618.31;5034975;28;45486;-82
2022/11/28 11:37:37;;;;;;;;;6.75;5.00;;;;;13.47;76.53;100620.28;5035450;28;45492;-82